sensor_id;sensor_type;location;lat;lon;timestamp;P1;durP1;ratioP1;P2;durP2;ratioP2
69594;SDS011;56800;52.142;5.364;2023-09-12T00:00:45;47.97;;;29.08;;
69594;SDS011;56800;52.142;5.364;2023-09-12T00:03:12;46.47;;;30.20;;
69594;SDS011;56800;52.142;5.364;2023-09-12T00:05:39;40.63;;;28.97;;
69594;SDS011;56800;52.142;5.364;2023-09-12T00:08:06;46.55;;;29.77;;
69594;SDS011;56800;52.142;5.364;2023-09-12T00:10:33;41.72;;;28.83;;
69594;SDS011;56800;52.142;5.364;2023-09-12T00:13:00;42.78;;;29.30;;
69594;SDS011;56800;52.142;5.364;2023-09-12T00:15:28;43.08;;;29.10;;
69594;SDS011;56800;52.142;5.364;2023-09-12T00:17:55;44.67;;;28.83;;
69594;SDS011;56800;52.142;5.364;2023-09-12T00:20:22;39.97;;;26.55;;
69594;SDS011;56800;52.142;5.364;2023-09-12T00:22:49;38.65;;;27.23;;
69594;SDS011;56800;52.142;5.364;2023-09-12T00:25:16;52.90;;;29.73;;
69594;SDS011;56800;52.142;5.364;2023-09-12T00:27:42;39.95;;;27.48;;
69594;SDS011;56800;52.142;5.364;2023-09-12T00:30:09;36.27;;;26.33;;
69594;SDS011;56800;52.142;5.364;2023-09-12T00:32:37;43.47;;;28.70;;
69594;SDS011;56800;52.142;5.364;2023-09-12T00:35:03;49.72;;;28.88;;
69594;SDS011;56800;52.142;5.364;2023-09-12T00:37:30;47.08;;;28.73;;
69594;SDS011;56800;52.142;5.364;2023-09-12T00:39:57;40.83;;;26.88;;
69594;SDS011;56800;52.142;5.364;2023-09-12T00:42:26;59.57;;;24.03;;
69594;SDS011;56800;52.142;5.364;2023-09-12T00:44:53;37.55;;;23.42;;
69594;SDS011;56800;52.142;5.364;2023-09-12T00:47:20;45.92;;;24.67;;
69594;SDS011;56800;52.142;5.364;2023-09-12T00:49:48;36.83;;;25.88;;
69594;SDS011;56800;52.142;5.364;2023-09-12T00:52:22;41.45;;;27.98;;
69594;SDS011;56800;52.142;5.364;2023-09-12T00:54:51;41.07;;;27.87;;
69594;SDS011;56800;52.142;5.364;2023-09-12T00:57:19;41.85;;;27.50;;
69594;SDS011;56800;52.142;5.364;2023-09-12T00:59:47;38.80;;;28.45;;
69594;SDS011;56800;52.142;5.364;2023-09-12T01:02:15;42.50;;;29.60;;
69594;SDS011;56800;52.142;5.364;2023-09-12T01:04:42;50.00;;;32.65;;
69594;SDS011;56800;52.142;5.364;2023-09-12T01:07:09;45.53;;;30.40;;
69594;SDS011;56800;52.142;5.364;2023-09-12T01:09:36;51.72;;;31.60;;
69594;SDS011;56800;52.142;5.364;2023-09-12T01:12:03;56.13;;;32.90;;
69594;SDS011;56800;52.142;5.364;2023-09-12T01:14:30;55.15;;;33.13;;
69594;SDS011;56800;52.142;5.364;2023-09-12T01:16:57;58.05;;;35.50;;
69594;SDS011;56800;52.142;5.364;2023-09-12T01:19:24;54.43;;;32.70;;
69594;SDS011;56800;52.142;5.364;2023-09-12T01:22:03;52.35;;;32.42;;
69594;SDS011;56800;52.142;5.364;2023-09-12T01:27:32;42.47;;;28.38;;
69594;SDS011;56800;52.142;5.364;2023-09-12T01:30:02;46.55;;;29.67;;
69594;SDS011;56800;52.142;5.364;2023-09-12T01:32:31;46.97;;;30.10;;
69594;SDS011;56800;52.142;5.364;2023-09-12T01:34:59;57.15;;;31.15;;
69594;SDS011;56800;52.142;5.364;2023-09-12T01:37:26;47.78;;;31.02;;
69594;SDS011;56800;52.142;5.364;2023-09-12T01:39:53;44.70;;;28.40;;
69594;SDS011;56800;52.142;5.364;2023-09-12T01:42:20;42.03;;;27.02;;
69594;SDS011;56800;52.142;5.364;2023-09-12T01:44:54;43.97;;;27.90;;
69594;SDS011;56800;52.142;5.364;2023-09-12T01:47:22;44.58;;;27.55;;
69594;SDS011;56800;52.142;5.364;2023-09-12T01:49:52;47.10;;;28.10;;
69594;SDS011;56800;52.142;5.364;2023-09-12T01:52:21;41.13;;;27.00;;
69594;SDS011;56800;52.142;5.364;2023-09-12T01:54:49;36.90;;;24.15;;
69594;SDS011;56800;52.142;5.364;2023-09-12T01:57:17;46.13;;;27.83;;
69594;SDS011;56800;52.142;5.364;2023-09-12T01:59:48;39.08;;;26.80;;
69594;SDS011;56800;52.142;5.364;2023-09-12T02:02:15;42.70;;;28.05;;
69594;SDS011;56800;52.142;5.364;2023-09-12T02:04:54;41.70;;;27.88;;
69594;SDS011;56800;52.142;5.364;2023-09-12T02:07:27;40.22;;;27.00;;
69594;SDS011;56800;52.142;5.364;2023-09-12T02:09:58;47.33;;;28.93;;
69594;SDS011;56800;52.142;5.364;2023-09-12T02:12:26;44.55;;;28.80;;
69594;SDS011;56800;52.142;5.364;2023-09-12T02:14:53;48.45;;;30.60;;
69594;SDS011;56800;52.142;5.364;2023-09-12T02:17:20;48.33;;;30.55;;
69594;SDS011;56800;52.142;5.364;2023-09-12T02:19:47;46.35;;;29.98;;
69594;SDS011;56800;52.142;5.364;2023-09-12T02:22:14;46.30;;;30.77;;
69594;SDS011;56800;52.142;5.364;2023-09-12T02:24:41;40.47;;;27.90;;
69594;SDS011;56800;52.142;5.364;2023-09-12T02:27:07;43.35;;;29.48;;
69594;SDS011;56800;52.142;5.364;2023-09-12T02:29:34;40.70;;;26.17;;
69594;SDS011;56800;52.142;5.364;2023-09-12T02:32:01;44.20;;;28.25;;
69594;SDS011;56800;52.142;5.364;2023-09-12T02:34:29;46.93;;;28.67;;
69594;SDS011;56800;52.142;5.364;2023-09-12T02:36:55;44.65;;;29.00;;
69594;SDS011;56800;52.142;5.364;2023-09-12T02:39:22;54.35;;;31.63;;
69594;SDS011;56800;52.142;5.364;2023-09-12T02:41:49;49.20;;;30.15;;
69594;SDS011;56800;52.142;5.364;2023-09-12T02:44:16;48.60;;;30.67;;
69594;SDS011;56800;52.142;5.364;2023-09-12T02:46:43;54.33;;;33.17;;
69594;SDS011;56800;52.142;5.364;2023-09-12T02:49:10;50.97;;;31.40;;
69594;SDS011;56800;52.142;5.364;2023-09-12T02:51:40;43.72;;;27.10;;
69594;SDS011;56800;52.142;5.364;2023-09-12T02:54:07;43.63;;;27.55;;
69594;SDS011;56800;52.142;5.364;2023-09-12T02:56:34;49.45;;;31.13;;
69594;SDS011;56800;52.142;5.364;2023-09-12T02:59:01;54.60;;;32.77;;
69594;SDS011;56800;52.142;5.364;2023-09-12T03:01:28;58.78;;;34.22;;
69594;SDS011;56800;52.142;5.364;2023-09-12T03:03:54;54.65;;;33.50;;
69594;SDS011;56800;52.142;5.364;2023-09-12T03:06:21;56.40;;;33.85;;
69594;SDS011;56800;52.142;5.364;2023-09-12T03:08:48;60.30;;;33.13;;
69594;SDS011;56800;52.142;5.364;2023-09-12T03:11:16;70.57;;;35.60;;
69594;SDS011;56800;52.142;5.364;2023-09-12T03:13:42;70.55;;;34.20;;
69594;SDS011;56800;52.142;5.364;2023-09-12T03:16:10;61.17;;;32.78;;
69594;SDS011;56800;52.142;5.364;2023-09-12T03:18:37;61.20;;;34.80;;
69594;SDS011;56800;52.142;5.364;2023-09-12T03:21:04;72.43;;;36.20;;
69594;SDS011;56800;52.142;5.364;2023-09-12T03:23:31;56.97;;;32.77;;
69594;SDS011;56800;52.142;5.364;2023-09-12T03:26:05;51.17;;;31.25;;
69594;SDS011;56800;52.142;5.364;2023-09-12T03:28:32;57.85;;;32.58;;
69594;SDS011;56800;52.142;5.364;2023-09-12T03:31:06;61.50;;;34.35;;
69594;SDS011;56800;52.142;5.364;2023-09-12T03:33:34;58.55;;;34.55;;
69594;SDS011;56800;52.142;5.364;2023-09-12T03:36:01;70.83;;;36.23;;
69594;SDS011;56800;52.142;5.364;2023-09-12T03:38:28;69.05;;;36.85;;
69594;SDS011;56800;52.142;5.364;2023-09-12T03:40:55;61.65;;;36.03;;
69594;SDS011;56800;52.142;5.364;2023-09-12T03:43:21;70.05;;;37.70;;
69594;SDS011;56800;52.142;5.364;2023-09-12T03:45:48;61.17;;;35.72;;
69594;SDS011;56800;52.142;5.364;2023-09-12T03:48:15;69.33;;;37.73;;
69594;SDS011;56800;52.142;5.364;2023-09-12T03:50:42;60.05;;;33.70;;
69594;SDS011;56800;52.142;5.364;2023-09-12T03:53:09;58.22;;;32.75;;
69594;SDS011;56800;52.142;5.364;2023-09-12T03:55:36;55.22;;;32.28;;
69594;SDS011;56800;52.142;5.364;2023-09-12T03:58:03;62.22;;;35.63;;
69594;SDS011;56800;52.142;5.364;2023-09-12T04:00:30;68.63;;;36.93;;
69594;SDS011;56800;52.142;5.364;2023-09-12T04:02:56;74.45;;;40.40;;
69594;SDS011;56800;52.142;5.364;2023-09-12T04:05:24;61.67;;;36.20;;
69594;SDS011;56800;52.142;5.364;2023-09-12T04:07:52;69.20;;;38.28;;
69594;SDS011;56800;52.142;5.364;2023-09-12T04:10:22;72.50;;;39.42;;
69594;SDS011;56800;52.142;5.364;2023-09-12T04:12:49;68.07;;;37.13;;
69594;SDS011;56800;52.142;5.364;2023-09-12T04:15:15;64.65;;;37.40;;
69594;SDS011;56800;52.142;5.364;2023-09-12T04:17:42;64.72;;;38.15;;
69594;SDS011;56800;52.142;5.364;2023-09-12T04:20:09;69.95;;;37.58;;
69594;SDS011;56800;52.142;5.364;2023-09-12T04:22:41;67.50;;;38.28;;
69594;SDS011;56800;52.142;5.364;2023-09-12T04:25:08;84.43;;;39.47;;
69594;SDS011;56800;52.142;5.364;2023-09-12T04:27:35;75.07;;;40.22;;
69594;SDS011;56800;52.142;5.364;2023-09-12T04:30:02;73.72;;;40.78;;
69594;SDS011;56800;52.142;5.364;2023-09-12T04:32:30;75.28;;;41.17;;
69594;SDS011;56800;52.142;5.364;2023-09-12T04:34:56;66.60;;;39.30;;
69594;SDS011;56800;52.142;5.364;2023-09-12T04:37:23;82.40;;;41.63;;
69594;SDS011;56800;52.142;5.364;2023-09-12T04:39:50;73.13;;;40.55;;
69594;SDS011;56800;52.142;5.364;2023-09-12T04:42:17;74.57;;;41.30;;
69594;SDS011;56800;52.142;5.364;2023-09-12T04:44:44;66.07;;;38.55;;
69594;SDS011;56800;52.142;5.364;2023-09-12T04:47:11;73.70;;;39.30;;
69594;SDS011;56800;52.142;5.364;2023-09-12T04:49:38;68.30;;;38.93;;
69594;SDS011;56800;52.142;5.364;2023-09-12T04:52:05;69.28;;;40.78;;
69594;SDS011;56800;52.142;5.364;2023-09-12T04:54:32;62.13;;;37.55;;
69594;SDS011;56800;52.142;5.364;2023-09-12T04:56:59;71.18;;;40.50;;
69594;SDS011;56800;52.142;5.364;2023-09-12T04:59:26;71.25;;;40.65;;
69594;SDS011;56800;52.142;5.364;2023-09-12T05:01:53;62.07;;;37.03;;
69594;SDS011;56800;52.142;5.364;2023-09-12T05:04:19;67.68;;;37.50;;
69594;SDS011;56800;52.142;5.364;2023-09-12T05:06:46;67.75;;;41.78;;
69594;SDS011;56800;52.142;5.364;2023-09-12T05:09:14;66.47;;;39.65;;
69594;SDS011;56800;52.142;5.364;2023-09-12T05:11:41;72.30;;;41.80;;
69594;SDS011;56800;52.142;5.364;2023-09-12T05:14:09;63.70;;;39.33;;
69594;SDS011;56800;52.142;5.364;2023-09-12T05:16:35;69.43;;;40.83;;
69594;SDS011;56800;52.142;5.364;2023-09-12T05:19:02;72.78;;;42.15;;
69594;SDS011;56800;52.142;5.364;2023-09-12T05:21:30;76.32;;;42.40;;
69594;SDS011;56800;52.142;5.364;2023-09-12T05:23:57;68.07;;;41.25;;
69594;SDS011;56800;52.142;5.364;2023-09-12T05:26:23;77.03;;;44.27;;
69594;SDS011;56800;52.142;5.364;2023-09-12T05:28:50;83.95;;;45.53;;
69594;SDS011;56800;52.142;5.364;2023-09-12T05:31:17;77.75;;;45.05;;
69594;SDS011;56800;52.142;5.364;2023-09-12T05:33:44;80.45;;;43.25;;
69594;SDS011;56800;52.142;5.364;2023-09-12T05:36:11;83.93;;;44.45;;
69594;SDS011;56800;52.142;5.364;2023-09-12T05:38:37;78.40;;;41.90;;
69594;SDS011;56800;52.142;5.364;2023-09-12T05:41:04;80.43;;;43.33;;
69594;SDS011;56800;52.142;5.364;2023-09-12T05:43:31;82.72;;;44.20;;
69594;SDS011;56800;52.142;5.364;2023-09-12T05:45:57;75.80;;;41.85;;
69594;SDS011;56800;52.142;5.364;2023-09-12T05:48:24;84.28;;;44.22;;
69594;SDS011;56800;52.142;5.364;2023-09-12T05:50:51;86.80;;;43.73;;
69594;SDS011;56800;52.142;5.364;2023-09-12T05:53:18;77.05;;;41.00;;
69594;SDS011;56800;52.142;5.364;2023-09-12T05:55:44;79.88;;;42.78;;
69594;SDS011;56800;52.142;5.364;2023-09-12T05:58:11;79.63;;;43.13;;
69594;SDS011;56800;52.142;5.364;2023-09-12T06:00:38;77.15;;;41.38;;
69594;SDS011;56800;52.142;5.364;2023-09-12T06:03:04;75.60;;;39.60;;
69594;SDS011;56800;52.142;5.364;2023-09-12T06:05:31;71.38;;;39.70;;
69594;SDS011;56800;52.142;5.364;2023-09-12T06:07:58;70.88;;;40.42;;
69594;SDS011;56800;52.142;5.364;2023-09-12T06:10:26;69.75;;;39.45;;
69594;SDS011;56800;52.142;5.364;2023-09-12T06:12:53;65.55;;;37.00;;
69594;SDS011;56800;52.142;5.364;2023-09-12T06:15:19;68.20;;;38.17;;
69594;SDS011;56800;52.142;5.364;2023-09-12T06:17:46;69.75;;;39.63;;
69594;SDS011;56800;52.142;5.364;2023-09-12T06:20:13;74.80;;;41.58;;
69594;SDS011;56800;52.142;5.364;2023-09-12T06:22:40;71.30;;;38.47;;
69594;SDS011;56800;52.142;5.364;2023-09-12T06:25:06;75.50;;;41.28;;
69594;SDS011;56800;52.142;5.364;2023-09-12T06:27:33;73.43;;;40.83;;
69594;SDS011;56800;52.142;5.364;2023-09-12T06:30:00;72.55;;;38.42;;
69594;SDS011;56800;52.142;5.364;2023-09-12T06:32:28;78.07;;;41.45;;
69594;SDS011;56800;52.142;5.364;2023-09-12T06:34:54;74.75;;;41.33;;
69594;SDS011;56800;52.142;5.364;2023-09-12T06:37:21;72.40;;;40.95;;
69594;SDS011;56800;52.142;5.364;2023-09-12T06:39:50;75.20;;;40.80;;
69594;SDS011;56800;52.142;5.364;2023-09-12T06:42:18;64.97;;;38.42;;
69594;SDS011;56800;52.142;5.364;2023-09-12T06:44:44;69.72;;;39.65;;
69594;SDS011;56800;52.142;5.364;2023-09-12T06:47:11;72.55;;;40.22;;
69594;SDS011;56800;52.142;5.364;2023-09-12T06:49:38;70.68;;;39.95;;
69594;SDS011;56800;52.142;5.364;2023-09-12T06:52:05;68.90;;;38.97;;
69594;SDS011;56800;52.142;5.364;2023-09-12T06:54:32;68.53;;;39.13;;
69594;SDS011;56800;52.142;5.364;2023-09-12T06:56:59;68.88;;;39.72;;
69594;SDS011;56800;52.142;5.364;2023-09-12T06:59:26;69.35;;;39.65;;
69594;SDS011;56800;52.142;5.364;2023-09-12T07:01:53;63.03;;;36.85;;
69594;SDS011;56800;52.142;5.364;2023-09-12T07:04:20;65.13;;;38.93;;
69594;SDS011;56800;52.142;5.364;2023-09-12T07:06:47;59.58;;;35.67;;
69594;SDS011;56800;52.142;5.364;2023-09-12T07:09:13;67.68;;;37.92;;
69594;SDS011;56800;52.142;5.364;2023-09-12T07:11:41;60.53;;;34.83;;
69594;SDS011;56800;52.142;5.364;2023-09-12T07:14:11;61.85;;;36.05;;
69594;SDS011;56800;52.142;5.364;2023-09-12T07:16:38;54.53;;;32.33;;
69594;SDS011;56800;52.142;5.364;2023-09-12T07:19:05;53.15;;;32.05;;
69594;SDS011;56800;52.142;5.364;2023-09-12T07:21:31;51.47;;;30.75;;
69594;SDS011;56800;52.142;5.364;2023-09-12T07:23:59;53.83;;;31.63;;
69594;SDS011;56800;52.142;5.364;2023-09-12T07:26:25;52.13;;;31.95;;
69594;SDS011;56800;52.142;5.364;2023-09-12T07:28:53;58.43;;;32.80;;
69594;SDS011;56800;52.142;5.364;2023-09-12T07:31:20;54.17;;;31.90;;
69594;SDS011;56800;52.142;5.364;2023-09-12T07:33:47;45.17;;;27.25;;
69594;SDS011;56800;52.142;5.364;2023-09-12T07:36:14;58.95;;;32.80;;
69594;SDS011;56800;52.142;5.364;2023-09-12T07:38:41;49.72;;;30.52;;
69594;SDS011;56800;52.142;5.364;2023-09-12T07:41:11;54.67;;;32.00;;
69594;SDS011;56800;52.142;5.364;2023-09-12T07:43:38;51.72;;;31.08;;
69594;SDS011;56800;52.142;5.364;2023-09-12T07:46:04;50.33;;;28.88;;
69594;SDS011;56800;52.142;5.364;2023-09-12T07:48:31;47.20;;;29.23;;
69594;SDS011;56800;52.142;5.364;2023-09-12T07:50:58;47.50;;;29.20;;
69594;SDS011;56800;52.142;5.364;2023-09-12T07:53:25;48.73;;;28.10;;
69594;SDS011;56800;52.142;5.364;2023-09-12T07:55:52;54.40;;;29.63;;
69594;SDS011;56800;52.142;5.364;2023-09-12T07:58:20;50.10;;;30.63;;
69594;SDS011;56800;52.142;5.364;2023-09-12T08:00:47;50.38;;;30.58;;
69594;SDS011;56800;52.142;5.364;2023-09-12T08:03:15;53.97;;;30.85;;
69594;SDS011;56800;52.142;5.364;2023-09-12T08:05:42;55.97;;;29.83;;
69594;SDS011;56800;52.142;5.364;2023-09-12T08:08:09;60.25;;;32.83;;
69594;SDS011;56800;52.142;5.364;2023-09-12T08:10:36;55.28;;;30.92;;
69594;SDS011;56800;52.142;5.364;2023-09-12T08:13:03;56.65;;;30.92;;
69594;SDS011;56800;52.142;5.364;2023-09-12T08:15:30;56.15;;;31.88;;
69594;SDS011;56800;52.142;5.364;2023-09-12T08:17:57;60.97;;;31.33;;
69594;SDS011;56800;52.142;5.364;2023-09-12T08:20:24;61.80;;;31.67;;
69594;SDS011;56800;52.142;5.364;2023-09-12T08:22:50;65.03;;;33.13;;
69594;SDS011;56800;52.142;5.364;2023-09-12T08:25:17;60.88;;;33.67;;
69594;SDS011;56800;52.142;5.364;2023-09-12T08:27:44;63.25;;;33.00;;
69594;SDS011;56800;52.142;5.364;2023-09-12T08:30:11;61.70;;;32.90;;
69594;SDS011;56800;52.142;5.364;2023-09-12T08:32:40;65.32;;;33.30;;
69594;SDS011;56800;52.142;5.364;2023-09-12T08:35:13;62.30;;;32.58;;
69594;SDS011;56800;52.142;5.364;2023-09-12T08:37:41;63.30;;;32.78;;
69594;SDS011;56800;52.142;5.364;2023-09-12T08:40:09;58.33;;;32.08;;
69594;SDS011;56800;52.142;5.364;2023-09-12T08:42:46;59.00;;;30.87;;
69594;SDS011;56800;52.142;5.364;2023-09-12T08:45:18;59.05;;;32.88;;
69594;SDS011;56800;52.142;5.364;2023-09-12T08:47:49;56.97;;;31.70;;
69594;SDS011;56800;52.142;5.364;2023-09-12T08:50:18;62.13;;;32.72;;
69594;SDS011;56800;52.142;5.364;2023-09-12T08:52:47;59.65;;;32.70;;
69594;SDS011;56800;52.142;5.364;2023-09-12T08:55:33;60.87;;;32.70;;
69594;SDS011;56800;52.142;5.364;2023-09-12T08:58:02;57.17;;;32.65;;
69594;SDS011;56800;52.142;5.364;2023-09-12T09:00:29;58.50;;;32.10;;
69594;SDS011;56800;52.142;5.364;2023-09-12T09:02:57;58.72;;;31.60;;
69594;SDS011;56800;52.142;5.364;2023-09-12T09:05:24;57.13;;;33.40;;
69594;SDS011;56800;52.142;5.364;2023-09-12T09:07:53;54.93;;;31.43;;
69594;SDS011;56800;52.142;5.364;2023-09-12T09:10:22;54.05;;;32.67;;
69594;SDS011;56800;52.142;5.364;2023-09-12T09:13:07;53.85;;;34.63;;
69594;SDS011;56800;52.142;5.364;2023-09-12T09:15:36;61.25;;;36.20;;
69594;SDS011;56800;52.142;5.364;2023-09-12T09:18:08;64.90;;;36.30;;
69594;SDS011;56800;52.142;5.364;2023-09-12T09:20:37;58.93;;;37.17;;
69594;SDS011;56800;52.142;5.364;2023-09-12T09:23:07;56.50;;;35.83;;
69594;SDS011;56800;52.142;5.364;2023-09-12T09:25:41;59.05;;;37.83;;
69594;SDS011;56800;52.142;5.364;2023-09-12T09:28:16;53.65;;;33.50;;
69594;SDS011;56800;52.142;5.364;2023-09-12T09:30:45;53.28;;;33.88;;
69594;SDS011;56800;52.142;5.364;2023-09-12T09:33:14;54.83;;;34.43;;
69594;SDS011;56800;52.142;5.364;2023-09-12T09:35:42;50.55;;;34.63;;
69594;SDS011;56800;52.142;5.364;2023-09-12T09:38:11;55.05;;;33.83;;
69594;SDS011;56800;52.142;5.364;2023-09-12T09:40:43;51.03;;;33.20;;
69594;SDS011;56800;52.142;5.364;2023-09-12T09:43:10;49.45;;;32.05;;
69594;SDS011;56800;52.142;5.364;2023-09-12T09:45:44;55.27;;;34.00;;
69594;SDS011;56800;52.142;5.364;2023-09-12T09:48:22;53.40;;;32.58;;
69594;SDS011;56800;52.142;5.364;2023-09-12T09:50:50;53.28;;;31.80;;
69594;SDS011;56800;52.142;5.364;2023-09-12T09:53:26;52.40;;;31.90;;
69594;SDS011;56800;52.142;5.364;2023-09-12T09:56:04;52.85;;;31.02;;
69594;SDS011;56800;52.142;5.364;2023-09-12T09:58:52;51.77;;;30.50;;
69594;SDS011;56800;52.142;5.364;2023-09-12T10:01:23;44.28;;;28.35;;
69594;SDS011;56800;52.142;5.364;2023-09-12T10:03:59;52.25;;;29.92;;
69594;SDS011;56800;52.142;5.364;2023-09-12T10:06:27;47.60;;;29.75;;
69594;SDS011;56800;52.142;5.364;2023-09-12T10:08:55;49.63;;;30.38;;
69594;SDS011;56800;52.142;5.364;2023-09-12T10:11:25;47.00;;;29.47;;
69594;SDS011;56800;52.142;5.364;2023-09-12T10:13:55;44.90;;;28.80;;
69594;SDS011;56800;52.142;5.364;2023-09-12T10:16:24;42.42;;;28.27;;
69594;SDS011;56800;52.142;5.364;2023-09-12T10:19:02;44.70;;;27.88;;
69594;SDS011;56800;52.142;5.364;2023-09-12T10:21:33;41.75;;;27.08;;
69594;SDS011;56800;52.142;5.364;2023-09-12T10:24:02;40.40;;;25.70;;
69594;SDS011;56800;52.142;5.364;2023-09-12T10:26:30;42.33;;;27.13;;
69594;SDS011;56800;52.142;5.364;2023-09-12T10:28:59;45.13;;;26.60;;
69594;SDS011;56800;52.142;5.364;2023-09-12T10:31:26;42.38;;;27.55;;
69594;SDS011;56800;52.142;5.364;2023-09-12T10:33:54;43.42;;;27.35;;
69594;SDS011;56800;52.142;5.364;2023-09-12T10:36:21;41.13;;;25.67;;
69594;SDS011;56800;52.142;5.364;2023-09-12T10:38:48;40.83;;;26.85;;
69594;SDS011;56800;52.142;5.364;2023-09-12T10:41:16;39.97;;;26.08;;
69594;SDS011;56800;52.142;5.364;2023-09-12T10:43:45;39.42;;;25.10;;
69594;SDS011;56800;52.142;5.364;2023-09-12T10:46:13;43.30;;;25.45;;
69594;SDS011;56800;52.142;5.364;2023-09-12T10:48:40;39.77;;;24.50;;
69594;SDS011;56800;52.142;5.364;2023-09-12T10:51:07;38.22;;;24.25;;
69594;SDS011;56800;52.142;5.364;2023-09-12T10:53:36;37.38;;;24.05;;
69594;SDS011;56800;52.142;5.364;2023-09-12T11:01:30;37.13;;;24.50;;
69594;SDS011;56800;52.142;5.364;2023-09-12T11:03:58;38.10;;;23.52;;
69594;SDS011;56800;52.142;5.364;2023-09-12T11:06:46;37.05;;;25.38;;
69594;SDS011;56800;52.142;5.364;2023-09-12T11:11:46;38.10;;;24.40;;
69594;SDS011;56800;52.142;5.364;2023-09-12T11:14:14;39.83;;;24.80;;
69594;SDS011;56800;52.142;5.364;2023-09-12T11:16:43;38.55;;;24.27;;
69594;SDS011;56800;52.142;5.364;2023-09-12T11:19:29;46.17;;;24.20;;
69594;SDS011;56800;52.142;5.364;2023-09-12T11:22:26;36.95;;;24.50;;
69594;SDS011;56800;52.142;5.364;2023-09-12T11:24:55;33.50;;;23.40;;
69594;SDS011;56800;52.142;5.364;2023-09-12T11:27:23;37.37;;;23.53;;
69594;SDS011;56800;52.142;5.364;2023-09-12T11:29:51;33.80;;;23.10;;
69594;SDS011;56800;52.142;5.364;2023-09-12T11:32:53;35.45;;;24.70;;
69594;SDS011;56800;52.142;5.364;2023-09-12T11:35:13;29.00;;;21.10;;
69594;SDS011;56800;52.142;5.364;2023-09-12T11:37:47;28.60;;;18.17;;
69594;SDS011;56800;52.142;5.364;2023-09-12T11:40:16;23.23;;;16.07;;
69594;SDS011;56800;52.142;5.364;2023-09-12T11:42:48;29.30;;;18.02;;
69594;SDS011;56800;52.142;5.364;2023-09-12T11:45:19;25.40;;;16.23;;
69594;SDS011;56800;52.142;5.364;2023-09-12T11:47:49;19.90;;;13.55;;
69594;SDS011;56800;52.142;5.364;2023-09-12T11:55:35;43.85;;;15.25;;
69594;SDS011;56800;52.142;5.364;2023-09-12T11:58:10;23.17;;;14.65;;
69594;SDS011;56800;52.142;5.364;2023-09-12T12:00:48;23.58;;;15.30;;
69594;SDS011;56800;52.142;5.364;2023-09-12T12:03:21;26.20;;;17.80;;
69594;SDS011;56800;52.142;5.364;2023-09-12T12:05:49;25.27;;;18.23;;
69594;SDS011;56800;52.142;5.364;2023-09-12T12:08:17;24.27;;;15.82;;
69594;SDS011;56800;52.142;5.364;2023-09-12T12:10:50;77.25;;;17.35;;
69594;SDS011;56800;52.142;5.364;2023-09-12T12:13:18;74.72;;;15.35;;
69594;SDS011;56800;52.142;5.364;2023-09-12T12:15:45;27.02;;;15.40;;
69594;SDS011;56800;52.142;5.364;2023-09-12T12:18:13;24.30;;;16.60;;
69594;SDS011;56800;52.142;5.364;2023-09-12T12:20:40;22.65;;;16.20;;
69594;SDS011;56800;52.142;5.364;2023-09-12T12:23:07;23.38;;;15.07;;
69594;SDS011;56800;52.142;5.364;2023-09-12T12:25:34;21.80;;;15.07;;
69594;SDS011;56800;52.142;5.364;2023-09-12T12:28:02;26.63;;;15.85;;
69594;SDS011;56800;52.142;5.364;2023-09-12T12:30:33;20.77;;;14.40;;
69594;SDS011;56800;52.142;5.364;2023-09-12T12:33:02;19.63;;;13.48;;
69594;SDS011;56800;52.142;5.364;2023-09-12T12:36:02;17.42;;;13.05;;
69594;SDS011;56800;52.142;5.364;2023-09-12T12:38:34;22.75;;;12.63;;
69594;SDS011;56800;52.142;5.364;2023-09-12T12:41:07;16.58;;;11.20;;
69594;SDS011;56800;52.142;5.364;2023-09-12T12:43:34;16.63;;;10.80;;
69594;SDS011;56800;52.142;5.364;2023-09-12T12:46:02;14.27;;;10.80;;
69594;SDS011;56800;52.142;5.364;2023-09-12T12:48:29;18.83;;;11.02;;
69594;SDS011;56800;52.142;5.364;2023-09-12T12:51:05;16.55;;;9.27;;
69594;SDS011;56800;52.142;5.364;2023-09-12T12:53:46;25.35;;;9.52;;
69594;SDS011;56800;52.142;5.364;2023-09-12T12:56:23;12.00;;;8.00;;
69594;SDS011;56800;52.142;5.364;2023-09-12T12:58:57;13.38;;;7.90;;
69594;SDS011;56800;52.142;5.364;2023-09-12T13:01:26;12.38;;;7.88;;
69594;SDS011;56800;52.142;5.364;2023-09-12T13:03:53;16.55;;;7.70;;
69594;SDS011;56800;52.142;5.364;2023-09-12T13:06:22;11.38;;;8.45;;
69594;SDS011;56800;52.142;5.364;2023-09-12T13:08:49;10.33;;;6.70;;
69594;SDS011;56800;52.142;5.364;2023-09-12T13:11:17;9.95;;;7.40;;
69594;SDS011;56800;52.142;5.364;2023-09-12T13:13:44;9.52;;;7.80;;
69594;SDS011;56800;52.142;5.364;2023-09-12T13:16:13;12.95;;;7.93;;
69594;SDS011;56800;52.142;5.364;2023-09-12T13:18:41;12.93;;;8.13;;
69594;SDS011;56800;52.142;5.364;2023-09-12T13:21:08;9.83;;;7.73;;
69594;SDS011;56800;52.142;5.364;2023-09-12T13:23:36;12.85;;;8.63;;
69594;SDS011;56800;52.142;5.364;2023-09-12T13:26:03;16.35;;;11.02;;
69594;SDS011;56800;52.142;5.364;2023-09-12T13:28:31;18.67;;;10.88;;
69594;SDS011;56800;52.142;5.364;2023-09-12T13:30:58;15.00;;;9.45;;
69594;SDS011;56800;52.142;5.364;2023-09-12T13:33:25;14.23;;;9.07;;
69594;SDS011;56800;52.142;5.364;2023-09-12T13:35:52;12.05;;;7.93;;
69594;SDS011;56800;52.142;5.364;2023-09-12T13:38:19;8.43;;;6.40;;
69594;SDS011;56800;52.142;5.364;2023-09-12T13:40:46;9.63;;;6.40;;
69594;SDS011;56800;52.142;5.364;2023-09-12T13:43:13;11.90;;;5.53;;
69594;SDS011;56800;52.142;5.364;2023-09-12T13:45:41;8.63;;;5.40;;
69594;SDS011;56800;52.142;5.364;2023-09-12T13:48:08;8.65;;;4.55;;
69594;SDS011;56800;52.142;5.364;2023-09-12T13:50:35;13.40;;;6.50;;
69594;SDS011;56800;52.142;5.364;2023-09-12T13:53:02;9.82;;;5.95;;
69594;SDS011;56800;52.142;5.364;2023-09-12T13:55:35;12.38;;;6.32;;
69594;SDS011;56800;52.142;5.364;2023-09-12T13:58:22;12.43;;;6.53;;
69594;SDS011;56800;52.142;5.364;2023-09-12T14:00:50;9.20;;;6.53;;
69594;SDS011;56800;52.142;5.364;2023-09-12T14:03:17;12.63;;;5.90;;
69594;SDS011;56800;52.142;5.364;2023-09-12T14:05:44;11.18;;;7.57;;
69594;SDS011;56800;52.142;5.364;2023-09-12T14:08:12;14.55;;;8.48;;
69594;SDS011;56800;52.142;5.364;2023-09-12T14:10:39;13.23;;;7.90;;
69594;SDS011;56800;52.142;5.364;2023-09-12T14:13:07;11.30;;;7.70;;
69594;SDS011;56800;52.142;5.364;2023-09-12T14:15:37;10.63;;;7.28;;
69594;SDS011;56800;52.142;5.364;2023-09-12T14:18:04;9.57;;;6.57;;
69594;SDS011;56800;52.142;5.364;2023-09-12T14:20:31;8.63;;;5.40;;
69594;SDS011;56800;52.142;5.364;2023-09-12T14:22:58;9.87;;;5.47;;
69594;SDS011;56800;52.142;5.364;2023-09-12T14:25:25;7.40;;;5.57;;
69594;SDS011;56800;52.142;5.364;2023-09-12T14:27:53;11.43;;;5.80;;
69594;SDS011;56800;52.142;5.364;2023-09-12T14:30:20;9.88;;;5.20;;
69594;SDS011;56800;52.142;5.364;2023-09-12T14:32:48;11.48;;;6.00;;
69594;SDS011;56800;52.142;5.364;2023-09-12T14:35:15;7.47;;;5.00;;
69594;SDS011;56800;52.142;5.364;2023-09-12T14:37:42;14.10;;;7.53;;
69594;SDS011;56800;52.142;5.364;2023-09-12T14:40:09;9.88;;;5.72;;
69594;SDS011;56800;52.142;5.364;2023-09-12T14:42:37;12.63;;;7.10;;
69594;SDS011;56800;52.142;5.364;2023-09-12T14:45:04;12.77;;;7.75;;
69594;SDS011;56800;52.142;5.364;2023-09-12T14:47:32;12.10;;;8.20;;